Time;durP1;ratioP1;P1;durP2;ratioP2;P2;SDS_P1;SDS_P2;PMS_P1;PMS_P2;Temp;Humidity;BMP_temperature;BMP_pressure;BME280_temperature;BME280_humidity;BME280_pressure;Samples;Min_cycle;Max_cycle;Signal;HPM_P1;HPM_P2
2023/07/23 00:00:48;;;;;;;12.60;11.30;;;;;;;14.81;52.11;100280.38;108506;1290;21998;-86
2023/07/23 00:03:41;;;;;;;19.20;10.50;;;;;;;14.74;52.52;100280.11;107943;1297;22895;-85
2023/07/23 00:06:38;;;;;;;;;;;;;;;;;;;;;
2023/07/23 00:09:49;;;;;;;15.40;10.20;;;;;;;14.65;52.92;100279.00;108202;1291;21998;-82
2023/07/23 00:12:38;;;;;;;13.30;11.30;;;;;;;14.60;52.92;100281.75;108499;1288;23793;-83
2023/07/23 00:15:28;;;;;;;17.60;11.20;;;;;;;14.54;53.21;100280.45;108525;1288;23097;-85
2023/07/23 00:18:33;;;;;;;16.70;12.70;;;;;;;14.51;53.37;100275.54;108537;1283;23753;-84
2023/07/23 00:21:23;;;;;;;17.00;11.20;;;;;;;14.53;53.50;100274.41;108619;1284;22025;-82
2023/07/23 00:24:19;;;;;;;17.50;11.10;;;;;;;14.54;53.30;100276.44;108721;1285;21976;-82
2023/07/23 00:26:53;;;;;;;13.70;10.60;;;;;;;14.51;53.35;100273.65;108842;1281;23049;-83
2023/07/23 00:29:37;;;;;;;16.10;10.20;;;;;;;14.48;53.37;100269.79;108796;1281;23740;-82
2023/07/23 00:32:30;;;;;;;13.90;10.50;;;;;;;14.46;53.58;100269.02;108978;1280;22049;-81
2023/07/23 00:35:20;;;;;;;13.60;10.00;;;;;;;14.46;53.39;100268.30;108843;1282;22744;-83
2023/07/23 00:38:08;;;;;;;12.00;9.10;;;;;;;14.42;53.52;100267.30;108854;1281;22027;-83
2023/07/23 00:41:00;;;;;;;11.90;9.60;;;;;;;14.41;53.77;100266.82;109095;1276;22085;-81
2023/07/23 00:43:57;;;;;;;16.50;10.50;;;;;;;14.44;53.93;100264.04;109225;1276;23812;-83
2023/07/23 00:46:56;;;;;;;14.20;10.00;;;;;;;14.48;54.05;100261.36;109489;1273;21995;-83
2023/07/23 00:49:43;;;;;;;15.40;9.70;;;;;;;14.50;53.89;100257.58;109087;1279;22353;-84
2023/07/23 00:52:26;;;;;;;12.80;9.90;;;;;;;14.49;53.71;100256.07;109254;1279;22007;-85
2023/07/23 00:55:14;;;;;;;12.60;9.80;;;;;;;14.46;53.69;100259.20;109194;1279;22028;-86
2023/07/23 00:58:08;;;;;;;16.30;10.00;;;;;;;14.42;53.77;100257.34;108964;1283;23049;-84
2023/07/23 01:01:08;;;;;;;15.10;9.10;;;;;;;14.38;53.76;100257.55;108910;1283;22142;-85
2023/07/23 01:04:01;;;;;;;16.40;9.60;;;;;;;14.35;53.85;100257.89;108899;1283;22021;-83
2023/07/23 01:07:06;;;;;;;15.90;11.80;;;;;;;14.31;53.91;100256.68;108887;1278;23634;-84
2023/07/23 01:09:53;;;;;;;21.00;17.70;;;;;;;14.24;53.87;100257.05;109045;1278;21991;-84
2023/07/23 01:12:37;;;;;;;22.70;20.00;;;;;;;14.18;54.24;100256.48;109154;1273;23087;-83
2023/07/23 01:15:22;;;;;;;20.70;14.90;;;;;;;14.14;54.21;100255.50;108920;1278;22359;-83
2023/07/23 01:18:11;;;;;;;14.10;11.60;;;;;;;14.06;54.29;100253.88;108636;1286;21982;-83
2023/07/23 01:20:45;;;;;;;;;;;;;;;13.96;54.53;100246.48;108551;1286;21954;-84
2023/07/23 01:23:44;;;;;;;11.60;8.90;;;;;;;13.81;55.15;100247.11;108232;1293;22004;-83
2023/07/23 01:26:33;;;;;;;15.10;10.80;;;;;;;13.74;55.24;100248.55;108200;1291;22011;-84
2023/07/23 01:29:32;;;;;;;11.40;9.60;;;;;;;13.64;55.42;100243.80;108139;1294;22011;-83
2023/07/23 01:32:08;;;;;;;10.50;9.30;;;;;;;13.58;55.53;100235.40;108003;1294;23769;-84
2023/07/23 01:34:58;;;;;;;;;;;;;;;;;;;;;
2023/07/23 01:37:53;;;;;;;10.80;9.10;;;;;;;13.41;56.31;100233.11;108575;1286;22045;-81
2023/07/23 01:40:42;;;;;;;11.40;8.80;;;;;;;13.39;56.57;100227.12;108673;1279;23079;-81
2023/07/23 01:43:50;;;;;;;11.00;8.70;;;;;;;13.36;56.82;100222.54;108982;1279;22002;-82
2023/07/23 01:46:27;;;;;;;10.50;8.90;;;;;;;13.34;56.96;100221.94;108849;1281;22024;-81
2023/07/23 01:48:59;;;;;;;13.70;9.10;;;;;;;13.36;57.05;100220.64;108851;1282;22038;-81
2023/07/23 01:51:59;;;;;;;10.50;8.10;;;;;;;13.36;57.25;100217.33;108636;1282;301445;-81
2023/07/23 01:54:39;;;;;;;10.70;8.60;;;;;;;13.37;57.25;100216.57;108841;1282;21974;-81
2023/07/23 01:57:34;;;;;;;12.50;9.10;;;;;;;13.35;57.34;100215.45;108988;1278;22000;-82
2023/07/23 02:00:23;;;;;;;8.90;8.00;;;;;;;13.35;57.40;100210.36;109130;1278;22920;-82
2023/07/23 02:03:09;;;;;;;10.50;8.90;;;;;;;13.36;57.34;100206.66;108850;1283;23071;-81
2023/07/23 02:05:52;;;;;;;10.30;8.60;;;;;;;13.40;57.57;100211.83;109172;1279;23148;-84
2023/07/23 02:08:27;;;;;;;10.90;9.10;;;;;;;13.41;57.52;100207.97;108578;1285;23647;-82
2023/07/23 02:11:06;;;;;;;9.80;8.90;;;;;;;13.42;57.54;100204.37;108638;1286;22000;-83
2023/07/23 02:13:46;;;;;;;9.80;7.10;;;;;;;13.42;57.52;100205.44;108549;1286;22209;-82
2023/07/23 02:16:25;;;;;;;8.70;7.90;;;;;;;13.40;57.36;100203.30;108631;1286;23792;-83
2023/07/23 02:19:06;;;;;;;10.40;8.80;;;;;;;13.36;57.48;100199.33;108613;1286;22037;-83
2023/07/23 02:22:12;;;;;;;10.80;9.10;;;;;;;13.31;57.76;100187.98;108569;1286;22018;-82
2023/07/23 02:24:55;;;;;;;11.50;8.30;;;;;;;13.29;57.97;100186.89;108537;1286;21995;-82
2023/07/23 02:27:43;;;;;;;11.20;8.50;;;;;;;13.30;58.01;100189.08;108604;1286;23738;-82
2023/07/23 02:30:46;;;;;;;13.30;9.20;;;;;;;13.32;58.19;100187.45;108732;1285;22027;-83
2023/07/23 02:33:45;;;;;;;10.20;8.50;;;;;;;13.32;58.30;100183.43;109102;1279;22092;-82
2023/07/23 02:36:25;;;;;;;9.10;8.20;;;;;;;13.31;58.41;100181.36;108976;1279;25042;-84
2023/07/23 02:39:13;;;;;;;9.70;8.70;;;;;;;13.29;58.46;100183.56;109190;1273;23625;-84
2023/07/23 02:42:20;;;;;;;10.40;8.80;;;;;;;13.23;58.70;100187.33;109004;1278;21985;-78
2023/07/23 02:45:29;;;;;;;8.10;7.30;;;;;;;13.20;59.23;100189.23;109069;1278;22004;-79
2023/07/23 02:48:38;;;;;;;10.90;8.90;;;;;;;13.20;59.34;100185.38;109164;1278;23246;-80
2023/07/23 02:51:43;;;;;;;11.40;9.30;;;;;;;13.18;59.34;100185.17;109191;1278;22007;-86
2023/07/23 02:54:48;;;;;;;10.80;9.70;;;;;;;13.14;59.40;100186.91;109390;1278;22008;-87
2023/07/23 02:57:38;;;;;;;10.20;8.60;;;;;;;13.12;59.78;100180.92;109049;1281;22649;-85
2023/07/23 03:00:45;;;;;;;11.10;8.70;;;;;;;13.12;59.89;100178.13;109127;1278;22008;-84
2023/07/23 03:03:32;;;;;;;10.70;8.90;;;;;;;13.13;59.88;100177.17;109286;1279;22088;-83
2023/07/23 03:06:17;;;;;;;13.40;10.30;;;;;;;13.11;60.04;100180.45;109273;1279;22048;-86
2023/07/23 03:09:33;;;;;;;9.60;8.50;;;;;;;13.13;60.12;100182.98;109177;1279;24077;-84
2023/07/23 03:12:15;;;;;;;10.20;8.50;;;;;;;13.12;60.25;100178.67;109017;1274;22928;-85
2023/07/23 03:14:52;;;;;;;10.00;8.50;;;;;;;13.14;60.21;100176.45;109279;1273;22481;-85
2023/07/23 03:18:00;;;;;;;;;;;;;;;;;;;;;
2023/07/23 03:21:11;;;;;;;11.60;9.40;;;;;;;13.19;60.06;100167.62;108869;1281;22753;-85
2023/07/23 03:23:59;;;;;;;10.40;9.20;;;;;;;13.22;60.11;100165.74;108805;1284;21985;-84
2023/07/23 03:26:35;;;;;;;11.50;9.50;;;;;;;13.23;59.80;100164.44;108768;1272;22019;-84
2023/07/23 03:29:19;;;;;;;9.90;8.60;;;;;;;13.21;59.65;100158.08;108545;1287;22068;-88
2023/07/23 03:32:05;;;;;;;9.50;8.50;;;;;;;13.17;59.62;100154.63;108475;1290;22027;-86
2023/07/23 03:35:15;;;;;;;10.20;9.30;;;;;;;13.14;59.86;100154.41;108373;1287;22010;-84
2023/07/23 03:37:53;;;;;;;12.90;9.50;;;;;;;13.15;59.82;100155.09;108583;1281;22009;-84
2023/07/23 03:40:50;;;;;;;11.70;10.30;;;;;;;13.18;59.86;100154.73;108966;1280;21970;-84
2023/07/23 03:44:36;;;;;;;;;;;;;;;;;;;;;
2023/07/23 03:47:38;;;;;;;10.50;9.50;;;;;;;13.27;60.06;100152.00;109137;1276;22010;-84
2023/07/23 03:50:31;;;;;;;14.10;10.00;;;;;;;13.35;59.96;100148.15;109304;1275;23750;-84
2023/07/23 03:53:08;;;;;;;10.70;9.70;;;;;;;13.42;59.87;100142.18;108941;1282;22017;-85
2023/07/23 03:55:58;;;;;;;14.70;10.10;;;;;;;13.49;59.81;100139.39;108993;1282;22074;-83
2023/07/23 03:59:12;;;;;;;;;;;;;;;;;;;;;
2023/07/23 04:02:00;;;;;;;11.40;9.40;;;;;;;13.55;59.66;100137.30;108943;1281;22005;-84
2023/07/23 04:04:50;;;;;;;11.20;9.30;;;;;;;13.57;59.71;100138.91;108989;1282;22062;-84
2023/07/23 04:07:37;;;;;;;10.80;9.70;;;;;;;13.62;59.65;100141.65;108901;1279;23654;-83
2023/07/23 04:10:23;;;;;;;11.20;9.20;;;;;;;13.66;59.57;100136.52;109148;1279;21999;-83
2023/07/23 04:13:16;;;;;;;10.10;9.10;;;;;;;13.68;59.63;100134.66;108854;1282;23617;-83
2023/07/23 04:16:13;;;;;;;14.50;9.50;;;;;;;13.73;59.64;100134.77;108925;1283;23639;-86
2023/07/23 04:18:54;;;;;;;9.90;8.70;;;;;;;13.77;59.62;100136.25;109372;1277;22433;-85
2023/07/23 04:21:56;;;;;;;11.40;9.90;;;;;;;13.84;59.61;100133.95;109107;1277;23005;-85
2023/07/23 04:24:56;;;;;;;11.60;10.40;;;;;;;13.90;59.64;100134.19;109054;1280;22445;-85
2023/07/23 04:27:57;;;;;;;12.40;10.00;;;;;;;13.96;59.59;100131.39;108633;1289;22047;-85
2023/07/23 04:30:36;;;;;;;11.80;10.60;;;;;;;14.03;59.64;100127.82;108661;1285;22000;-84
2023/07/23 04:33:15;;;;;;;11.80;9.60;;;;;;;14.09;59.61;100124.19;108700;1285;24000;-85
2023/07/23 04:36:18;;;;;;;10.10;8.60;;;;;;;14.19;59.46;100130.83;108582;1288;23064;-83
2023/07/23 04:39:17;;;;;;;12.00;8.40;;;;;;;14.25;59.59;100126.61;108298;1292;22680;-84
2023/07/23 04:42:11;;;;;;;;;;;;;;;;;;;;;
2023/07/23 04:49:00;;;;;;;;;;;;;;;;;;;;;
2023/07/23 04:52:29;;;;;;;9.90;9.00;;;;;;;14.75;59.91;100117.16;108323;1291;22041;-80
2023/07/23 04:56:49;;;;;;;;;;;;;;;;;;;;;
2023/07/23 05:00:06;;;;;;;9.10;8.20;;;;;;;15.18;59.09;100112.63;108832;1282;21992;-82
2023/07/23 05:03:33;;;;;;;11.10;8.80;;;;;;;15.36;58.68;100115.06;108445;1288;22081;-80
2023/07/23 05:06:13;;;;;;;12.30;8.40;;;;;;;15.52;58.28;100114.96;108468;1288;22040;-80
2023/07/23 05:09:04;;;;;;;9.70;8.30;;;;;;;15.64;58.13;100110.89;108161;1292;22008;-80
2023/07/23 05:12:38;;;;;;;;;;;;;;;;;;;;;
2023/07/23 05:16:01;;;;;;;12.40;8.20;;;;;;;15.82;57.61;100107.70;108340;1287;21910;-81
2023/07/23 05:18:47;;;;;;;10.60;8.00;;;;;;;15.91;57.60;100103.41;108374;1285;22004;-78
2023/07/23 05:21:50;;;;;;;9.30;8.00;;;;;;;16.01;57.51;100102.98;108786;1279;21991;-80
2023/07/23 05:25:09;;;;;;;;;;;;;;;;;;;;;
2023/07/23 05:28:16;;;;;;;11.00;8.00;;;;;;;16.25;57.44;100102.64;109287;1273;21969;-80
2023/07/23 05:31:44;;;;;;;;;;;;;;;;;;;;;
2023/07/23 05:35:06;;;;;;;7.90;7.00;;;;;;;16.54;56.94;100098.10;108901;1278;21988;-79
2023/07/23 05:38:14;;;;;;;;;;;;;;;;;;;;;
2023/07/23 05:41:28;;;;;;;9.00;6.60;;;;;;;16.83;56.42;100101.41;108346;1283;22060;-78
2023/07/23 05:44:44;;;;;;;;;;;;;;;16.98;56.36;100099.17;108479;1283;23602;-79
2023/07/23 05:47:57;;;;;;;;;;;;;;;17.06;56.13;100096.89;108594;1283;22374;-78
2023/07/23 05:51:01;;;;;;;8.00;6.30;;;;;;;17.13;56.02;100087.80;108934;1279;23615;-78
2023/07/23 05:54:01;;;;;;;6.60;6.00;;;;;;;17.25;55.36;100082.52;108514;1283;23725;-79
2023/07/23 05:56:45;;;;;;;7.20;6.20;;;;;;;17.38;55.13;100077.79;108353;1289;22045;-80
2023/07/23 06:00:06;;;;;;;;;;;;;;;17.55;55.09;100075.70;107866;1295;22584;-80
2023/07/23 06:03:27;;;;;;;7.20;5.90;;;;;;;17.72;55.08;100075.34;107247;1301;23746;-79
2023/07/23 06:06:47;;;;;;;6.60;5.80;;;;;;;18.03;54.90;100076.88;107327;1295;22028;-78
2023/07/23 06:09:33;;;;;;;8.40;5.90;;;;;;;18.43;54.21;100074.29;106779;1301;21976;-77
2023/07/23 06:15:13;;;;;;;9.20;5.50;;;;;;;19.23;51.67;100067.30;107682;1287;22771;-77
2023/07/23 06:17:57;;;;;;;8.50;5.90;;;;;;;19.51;50.61;100065.58;108486;1281;22948;-78
2023/07/23 06:21:43;;;;;;;;;;;;;;;;;;;;;
2023/07/23 06:25:29;;;;;;;;;;;;;;;;;;;;;
2023/07/23 06:28:42;;;;;;;7.70;5.20;;;;;;;20.17;48.23;100055.34;107780;1294;25023;-79
2023/07/23 06:32:11;;;;;;;6.30;5.50;;;;;;;20.46;48.37;100051.20;107662;1294;23663;-79
2023/07/23 06:35:26;;;;;;;6.30;4.60;;;;;;;20.90;48.09;100048.17;107714;1294;23070;-78
2023/07/23 06:38:43;;;;;;;5.00;4.10;;;;;;;21.54;47.53;100043.48;107751;1295;22114;-77
2023/07/23 06:41:45;;;;;;;12.80;5.10;;;;;;;22.24;46.17;100040.08;108156;1289;23961;-80
2023/07/23 06:44:27;;;;;;;6.80;4.50;;;;;;;22.75;44.01;100041.95;108233;1287;22078;-78
2023/07/23 06:47:41;;;;;;;;;;;;;;;;;;;;;
2023/07/23 06:51:18;;;;;;;5.50;4.00;;;;;;;23.69;40.99;100032.59;107873;1289;22002;-79
2023/07/23 06:57:24;;;;;;;10.50;4.10;;;;;;;23.99;39.11;100028.48;108547;1284;23775;-77
2023/07/23 07:00:49;;;;;;;3.60;3.30;;;;;;;24.04;39.08;100025.31;108604;1284;23126;-78
2023/07/23 07:04:05;;;;;;;8.90;3.20;;;;;;;24.11;38.85;100021.17;108446;1284;23719;-78
2023/07/23 07:07:30;;;;;;;8.50;3.50;;;;;;;24.33;38.95;100018.14;108277;1288;21993;-78
2023/07/23 07:10:13;;;;;;;12.90;4.40;;;;;;;24.59;38.57;100020.85;108627;1282;21986;-76
2023/07/23 07:13:38;;;;;;;6.40;4.20;;;;;;;24.87;38.45;100016.68;108913;1278;23612;-79
2023/07/23 07:16:48;;;;;;;6.80;3.20;;;;;;;25.15;37.40;100009.02;108944;1278;23599;-79
2023/07/23 07:23:29;;;;;;;;;;;;;;;;;;;;;
2023/07/23 07:26:21;;;;;;;6.50;3.40;;;;;;;26.01;35.32;100000.51;108642;1282;22419;-78
2023/07/23 07:29:25;;;;;;;3.30;2.90;;;;;;;26.03;34.16;99999.00;108650;1282;22018;-78
2023/07/23 07:32:20;;;;;;;6.90;2.90;;;;;;;26.07;34.13;99999.48;108789;1279;21984;-77
2023/07/23 07:35:13;;;;;;;4.70;3.30;;;;;;;26.08;33.68;99997.26;108721;1279;22000;-77
2023/07/23 07:38:12;;;;;;;5.30;2.90;;;;;;;26.02;33.73;99999.27;109005;1275;22024;-78
2023/07/23 07:41:02;;;;;;;;;;;;;;;;;;;;;
2023/07/23 07:44:13;;;;;;;7.00;3.20;;;;;;;25.80;33.94;99995.20;108773;1277;22886;-80
2023/07/23 07:47:00;;;;;;;4.20;3.00;;;;;;;25.78;33.87;100002.36;108690;1278;22973;-77
2023/07/23 07:49:34;;;;;;;5.70;2.90;;;;;;;25.72;34.04;100005.33;108903;1274;22149;-77
2023/07/23 07:53:20;;;;;;;9.60;3.20;;;;;;;25.75;34.33;100005.39;108727;1279;23692;-79
2023/07/23 07:56:43;;;;;;;4.90;3.50;;;;;;;25.89;34.31;100001.65;108780;1276;21981;-79
2023/07/23 08:00:06;;;;;;;4.70;2.90;;;;;;;25.97;33.98;100000.54;109447;1272;22022;-80
2023/07/23 08:03:27;;;;;;;7.60;2.90;;;;;;;26.00;33.89;99995.09;109397;1272;23624;-79
2023/07/23 08:07:06;;;;;;;4.30;3.90;;;;;;;26.13;33.64;99994.42;109111;1277;22537;-79
2023/07/23 08:14:47;;;;;;;5.30;3.20;;;;;;;27.28;33.86;100003.22;108918;1280;22421;-79
2023/07/23 08:18:25;;;;;;;6.40;2.70;;;;;;;28.29;32.23;100002.77;109007;1280;23612;-79
2023/07/23 08:21:13;;;;;;;13.60;3.00;;;;;;;28.86;30.38;100002.55;108560;1284;22454;-80
2023/07/23 08:23:52;;;;;;;4.90;2.70;;;;;;;29.21;29.94;100000.63;108180;1289;22409;-80
2023/07/23 08:26:35;;;;;;;3.50;2.30;;;;;;;29.41;29.11;100000.30;108015;1294;23089;-80
2023/07/23 08:29:13;;;;;;;4.60;2.10;;;;;;;29.34;28.52;99999.80;107672;1298;22425;-81
2023/07/23 08:31:47;;;;;;;8.40;3.10;;;;;;;29.10;28.39;100002.14;107834;1298;22008;-81
2023/07/23 08:34:28;;;;;;;9.90;3.10;;;;;;;28.76;28.82;100002.09;107674;1298;23748;-80
2023/07/23 08:37:04;;;;;;;4.20;2.90;;;;;;;28.53;29.25;100004.48;107697;1295;22010;-80
2023/07/23 08:39:45;;;;;;;7.20;3.10;;;;;;;28.31;29.36;100008.36;107619;1297;22037;-84
2023/07/23 08:42:53;;;;;;;4.80;3.30;;;;;;;28.09;29.55;100010.87;108029;1293;22028;-80
2023/07/23 08:46:00;;;;;;;7.70;3.10;;;;;;;27.92;29.68;100004.10;108320;1289;23731;-81
2023/07/23 08:48:58;;;;;;;6.80;3.90;;;;;;;27.79;30.05;100004.89;108688;1283;23727;-81
2023/07/23 08:51:45;;;;;;;10.60;9.40;;;;;;;27.75;30.29;99995.73;108775;1284;22227;-80
2023/07/23 08:54:22;;;;;;;4.50;3.40;;;;;;;27.77;30.21;100003.20;108669;1284;22457;-81
2023/07/23 08:57:15;;;;;;;5.60;3.10;;;;;;;27.80;30.31;100008.50;108865;1278;21996;-81
2023/07/23 08:59:58;;;;;;;4.90;4.40;;;;;;;27.82;30.23;100008.16;109054;1278;21991;-83
2023/07/23 09:02:40;;;;;;;6.90;3.80;;;;;;;27.71;30.14;100007.13;108944;1272;22439;-81
2023/07/23 09:05:26;;;;;;;3.70;2.80;;;;;;;27.61;30.46;100010.20;109599;1272;21983;-80
2023/07/23 09:08:15;;;;;;;9.00;7.30;;;;;;;27.52;30.60;100013.37;109605;1272;22491;-82
2023/07/23 09:11:04;;;;;;;4.80;3.00;;;;;;;27.38;30.66;100010.27;109613;1272;22007;-80
2023/07/23 09:13:54;;;;;;;9.20;3.40;;;;;;;27.17;30.67;100005.30;109458;1272;22264;-80
2023/07/23 09:16:38;;;;;;;8.70;3.70;;;;;;;26.96;30.95;100003.63;109436;1272;22007;-80
2023/07/23 09:19:26;;;;;;;4.60;3.60;;;;;;;26.84;31.33;100004.27;109644;1272;23638;-80
2023/07/23 09:22:17;;;;;;;6.60;3.20;;;;;;;26.71;31.49;100004.80;109631;1272;22743;-81
2023/07/23 09:25:04;;;;;;;6.60;3.20;;;;;;;26.65;31.69;100003.48;109128;1279;23005;-80
2023/07/23 09:27:47;;;;;;;6.80;3.70;;;;;;;26.66;31.83;99998.77;109092;1279;22463;-80
2023/07/23 09:30:30;;;;;;;6.50;3.30;;;;;;;26.69;31.85;100002.33;108811;1283;22195;-82
2023/07/23 09:33:07;;;;;;;6.50;3.50;;;;;;;26.70;31.70;100006.52;108548;1287;22344;-81
2023/07/23 09:35:42;;;;;;;2.80;2.60;;;;;;;26.69;31.76;100001.63;108508;1287;23035;-81
2023/07/23 09:38:34;;;;;;;5.80;3.90;;;;;;;26.73;31.88;100000.69;108506;1287;22106;-81
2023/07/23 09:41:11;;;;;;;3.20;2.80;;;;;;;26.80;31.96;100001.33;108493;1286;22010;-82
2023/07/23 09:44:01;;;;;;;;;;;;;;;;;;;;;
2023/07/23 09:46:53;;;;;;;5.90;3.30;;;;;;;27.18;32.36;99991.48;108823;1281;22967;-81
2023/07/23 09:49:32;;;;;;;3.70;3.30;;;;;;;27.67;31.79;99984.65;108645;1283;22765;-81
2023/07/23 09:52:14;;;;;;;6.20;3.70;;;;;;;28.26;31.19;99983.67;108783;1279;22092;-80
2023/07/23 09:54:53;;;;;;;6.00;3.50;;;;;;;28.71;29.99;99987.23;109136;1279;23897;-81
2023/07/23 09:57:49;;;;;;;7.60;3.40;;;;;;;28.91;29.29;99985.96;109119;1279;24218;-82
2023/07/23 10:00:28;;;;;;;5.10;2.80;;;;;;;29.11;28.75;99980.63;109130;1279;21998;-80
2023/07/23 10:03:14;;;;;;;;;;;;;;;;;;;;;
2023/07/23 10:05:59;;;;;;;7.40;3.10;;;;;;;29.76;27.88;99976.65;108899;1283;21964;-79
2023/07/23 10:08:45;;;;;;;5.10;3.00;;;;;;;29.86;26.85;99973.61;108908;1283;22003;-82
2023/07/23 10:11:19;;;;;;;8.40;3.60;;;;;;;29.59;26.55;99977.63;108501;1286;22778;-80
2023/07/23 10:14:14;;;;;;;9.60;3.40;;;;;;;29.29;27.06;99977.92;108818;1281;22029;-81
2023/07/23 10:17:04;;;;;;;15.70;3.20;;;;;;;29.11;27.29;99979.76;108858;1281;22046;-81
2023/07/23 10:19:36;;;;;;;4.40;3.10;;;;;;;29.06;27.51;99985.01;108659;1283;21995;-81
2023/07/23 10:22:35;;;;;;;;;;;;;;;;;;;;;
2023/07/23 10:26:10;;;;;;;3.60;3.30;;;;;;;29.17;27.12;99974.19;108263;1288;23098;-83
2023/07/23 10:29:04;;;;;;;5.60;3.10;;;;;;;29.33;27.43;99976.39;108730;1270;22166;-83
2023/07/23 10:32:39;;;;;;;;;;;;;;;;;;;;;
2023/07/23 10:36:05;;;;;;;10.00;4.20;;;;;;;29.53;26.74;99971.64;108675;1288;23647;-84
2023/07/23 10:38:42;;;;;;;5.40;3.50;;;;;;;29.39;26.77;99977.44;108631;1288;22022;-83
2023/07/23 10:41:55;;;;;;;9.00;3.90;;;;;;;29.18;27.08;99973.55;108647;1284;22474;-84
2023/07/23 10:44:42;;;;;;;4.00;2.80;;;;;;;28.97;27.20;99972.29;108777;1285;22015;-81
2023/07/23 10:48:22;;;;;;;4.40;3.00;;;;;;;28.90;27.49;99964.63;108780;1285;23756;-79
2023/07/23 10:51:41;;;;;;;33.40;9.50;;;;;;;28.86;27.77;99966.03;108673;1285;22105;-80
2023/07/23 10:54:34;;;;;;;9.20;3.20;;;;;;;28.86;28.08;99965.27;108672;1284;23772;-79
2023/07/23 10:57:24;;;;;;;;;;;;;;;28.81;27.90;99963.52;107897;1297;23735;-80
2023/07/23 11:00:26;;;;;;;8.40;3.80;;;;;;;28.77;28.07;99958.77;107493;1296;23744;-82
2023/07/23 11:03:27;;;;;;;8.90;3.50;;;;;;;28.77;27.94;99951.88;107868;1294;23091;-81
2023/07/23 11:07:17;;;;;;;21.40;5.20;;;;;;;28.83;28.19;99946.81;107731;1294;21973;-79
2023/07/23 11:10:22;;;;;;;5.60;3.60;;;;;;;29.08;28.33;99941.26;108253;1290;22002;-78
2023/07/23 11:13:48;;;;;;;6.00;2.90;;;;;;;29.38;27.73;99940.79;107700;1295;22036;-79
2023/07/23 11:16:18;;;;;;;5.70;2.80;;;;;;;29.50;27.31;99937.40;107870;1295;23276;-79
2023/07/23 11:19:33;;;;;;;4.20;3.00;;;;;;;29.37;27.09;99937.93;107731;1295;22733;-80
2023/07/23 11:22:31;;;;;;;6.90;3.40;;;;;;;29.10;27.20;99928.08;107756;1295;22424;-78
2023/07/23 11:25:46;;;;;;;4.80;3.10;;;;;;;29.07;27.35;99929.09;107887;1295;23956;-79
2023/07/23 11:28:24;;;;;;;7.30;3.10;;;;;;;29.01;27.49;99928.56;107803;1293;21993;-78
2023/07/23 11:30:58;;;;;;;3.60;3.20;;;;;;;29.01;27.42;99926.95;107789;1291;22173;-79
2023/07/23 11:33:33;;;;;;;5.40;3.50;;;;;;;29.01;27.43;99920.42;107847;1283;22269;-78
2023/07/23 11:36:31;;;;;;;4.50;3.20;;;;;;;28.92;27.47;99917.09;108461;1285;22141;-79
2023/07/23 11:39:12;;;;;;;4.60;3.10;;;;;;;28.84;27.87;99915.17;108444;1285;23068;-79
2023/07/23 11:41:48;;;;;;;8.60;3.30;;;;;;;28.81;27.87;99906.62;108410;1285;23637;-80
2023/07/23 11:44:34;;;;;;;5.10;3.50;;;;;;;28.78;27.78;99903.71;108501;1285;22009;-78
2023/07/23 11:47:10;;;;;;;7.00;5.50;;;;;;;28.77;27.86;99902.04;108321;1285;22015;-79
2023/07/23 11:50:04;;;;;;;4.70;3.70;;;;;;;28.81;28.00;99904.11;108477;1285;22007;-79
2023/07/23 11:52:55;;;;;;;4.30;3.00;;;;;;;28.84;28.11;99899.77;108308;1283;22304;-80
2023/07/23 11:55:55;;;;;;;5.50;3.50;;;;;;;29.02;28.38;99894.89;108687;1283;22006;-78
2023/07/23 11:58:34;;;;;;;7.10;3.90;;;;;;;29.19;27.95;99882.65;108769;1270;21991;-79
2023/07/23 12:01:24;;;;;;;6.30;3.20;;;;;;;29.23;27.72;99885.19;108848;1283;22037;-80
2023/07/23 12:04:21;;;;;;;6.40;2.90;;;;;;;29.21;27.45;99885.58;108623;1283;21995;-79
2023/07/23 12:07:19;;;;;;;6.80;2.90;;;;;;;29.16;27.46;99877.42;108670;1283;22046;-81
2023/07/23 12:10:19;;;;;;;5.70;3.10;;;;;;;29.19;27.73;99872.91;108504;1287;22484;-82
2023/07/23 12:13:47;;;;;;;6.10;2.80;;;;;;;29.36;27.75;99872.08;108089;1292;22072;-80
2023/07/23 12:16:40;;;;;;;16.20;6.50;;;;;;;29.51;27.13;99866.02;107855;1288;22267;-79
2023/07/23 12:20:01;;;;;;;15.30;4.70;;;;;;;29.56;26.90;99862.35;108216;1288;24959;-79
2023/07/23 12:23:18;;;;;;;;;;;;;;;;;;;;;
2023/07/23 12:26:09;;;;;;;4.40;3.40;;;;;;;29.59;26.52;99848.51;108449;1288;22096;-80
2023/07/23 12:28:51;;;;;;;4.70;3.40;;;;;;;29.58;26.51;99843.98;107862;1292;23760;-79
2023/07/23 12:32:08;;;;;;;5.70;3.10;;;;;;;29.55;26.48;99845.09;108141;1292;23834;-80
2023/07/23 12:35:07;;;;;;;8.50;2.90;;;;;;;29.54;26.49;99851.73;108455;1287;21994;-79
2023/07/23 12:37:55;;;;;;;7.40;3.10;;;;;;;29.45;26.11;99851.65;108220;1292;23777;-78
2023/07/23 12:40:33;;;;;;;5.40;3.30;;;;;;;29.32;26.01;99845.16;108019;1288;22013;-80
2023/07/23 12:43:45;;;;;;;7.50;3.20;;;;;;;29.24;26.22;99839.93;108549;1284;23216;-78
2023/07/23 12:46:29;;;;;;;5.80;2.80;;;;;;;29.32;26.52;99831.02;108610;1284;22110;-79
2023/07/23 12:49:26;;;;;;;3.40;2.90;;;;;;;29.46;26.42;99831.03;108580;1283;22752;-80
2023/07/23 12:52:05;;;;;;;4.10;3.20;;;;;;;29.52;26.11;99830.42;108494;1283;22018;-79
2023/07/23 12:54:45;;;;;;;4.10;3.10;;;;;;;29.51;26.07;99830.33;108878;1279;24470;-79
2023/07/23 12:57:36;;;;;;;6.10;3.80;;;;;;;29.45;26.05;99827.29;108726;1283;22074;-79
2023/07/23 13:00:18;;;;;;;3.90;3.30;;;;;;;29.40;25.95;99823.73;108643;1283;21997;-78
2023/07/23 13:03:00;;;;;;;5.80;3.50;;;;;;;29.39;25.94;99817.23;108768;1283;21993;-80
2023/07/23 13:05:49;;;;;;;4.20;3.00;;;;;;;29.31;26.15;99821.17;108666;1283;22087;-80
2023/07/23 13:08:39;;;;;;;5.60;3.20;;;;;;;29.29;26.27;99813.34;108561;1282;22392;-80
2023/07/23 13:11:25;;;;;;;4.00;3.10;;;;;;;29.36;26.64;99807.08;108813;1282;22012;-81
2023/07/23 13:14:19;;;;;;;3.50;3.00;;;;;;;29.45;26.49;99810.22;108520;1282;21999;-79
2023/07/23 13:17:00;;;;;;;7.30;3.10;;;;;;;29.46;26.28;99806.16;108685;1282;22145;-77
2023/07/23 13:20:34;;;;;;;5.00;3.20;;;;;;;29.41;26.22;99805.02;108455;1283;22156;-78
2023/07/23 13:23:39;;;;;;;4.20;3.00;;;;;;;29.45;26.40;99799.87;108533;1282;22765;-79
2023/07/23 13:27:10;;;;;;;5.90;2.90;;;;;;;29.57;26.29;99792.86;108792;1277;21985;-80
2023/07/23 13:30:25;;;;;;;7.40;3.10;;;;;;;29.71;26.27;99791.36;108807;1280;21998;-79
2023/07/23 13:33:06;;;;;;;6.80;3.80;;;;;;;29.68;25.88;99790.33;108678;1280;21973;-79
2023/07/23 13:36:16;;;;;;;4.80;3.10;;;;;;;29.60;26.04;99790.89;108877;1277;22000;-77
2023/07/23 13:39:04;;;;;;;6.90;3.50;;;;;;;29.53;26.17;99787.48;108535;1283;23128;-79
2023/07/23 13:41:50;;;;;;;2.10;1.90;;;;;;;29.52;26.16;99784.16;108118;1289;22044;-78
2023/07/23 13:44:34;;;;;;;4.10;3.10;;;;;;;29.50;26.13;99785.67;108194;1289;24354;-80
2023/07/23 13:47:35;;;;;;;4.00;3.30;;;;;;;29.53;26.24;99778.70;108274;1286;24400;-79
2023/07/23 13:50:16;;;;;;;8.00;3.50;;;;;;;29.61;26.58;99770.84;108500;1280;23095;-79
2023/07/23 13:53:29;;;;;;;3.60;2.30;;;;;;;29.78;26.48;99767.65;108321;1286;23714;-79
2023/07/23 13:56:26;;;;;;;7.90;2.60;;;;;;;29.90;26.28;99765.91;108405;1286;22006;-81
2023/07/23 13:59:12;;;;;;;9.10;2.70;;;;;;;29.97;25.91;99773.33;108013;1286;22001;-78
2023/07/23 14:01:53;;;;;;;;;;;;;;;29.99;25.76;99769.52;108343;1286;21982;-80
2023/07/23 14:04:29;;;;;;;3.10;2.20;;;;;;;29.89;25.77;99754.48;108455;1286;24400;-79
2023/07/23 14:07:15;;;;;;;2.60;2.30;;;;;;;29.94;25.80;99754.10;108332;1286;22518;-78
2023/07/23 14:10:04;;;;;;;7.20;2.50;;;;;;;29.89;25.78;99756.73;108882;1278;21987;-78
2023/07/23 14:13:16;;;;;;;4.00;2.40;;;;;;;29.87;26.12;99759.20;108749;1278;21995;-76
2023/07/23 14:15:53;;;;;;;4.80;2.70;;;;;;;29.93;26.25;99757.16;108890;1278;22056;-77
2023/07/23 14:19:10;;;;;;;3.00;2.20;;;;;;;29.99;26.20;99753.85;109202;1273;22142;-75
2023/07/23 14:21:57;;;;;;;2.80;2.50;;;;;;;30.06;26.06;99750.77;109390;1273;22022;-77
2023/07/23 14:24:30;;;;;;;9.80;3.20;;;;;;;30.11;25.76;99751.54;109249;1273;21981;-78